Time;durP1;ratioP1;P1;durP2;ratioP2;P2;SDS_P1;SDS_P2;PMS_P1;PMS_P2;Temp;Humidity;BMP_temperature;BMP_pressure;BME280_temperature;BME280_humidity;BME280_pressure;Samples;Min_cycle;Max_cycle;Signal;HPM_P1;HPM_P2
2022/04/10 00:01:30;;;;;;;1.60;1.30;;;-0.50;99.90;;;;;;4992803;28;20026;-69
2022/04/10 00:03:56;;;;;;;2.15;1.65;;;-0.50;99.90;;;;;;4992254;28;20565;-69
2022/04/10 00:06:26;;;;;;;1.60;1.50;;;-0.60;99.90;;;;;;4992809;28;20031;-69
2022/04/10 00:08:51;;;;;;;3.25;1.77;;;-0.50;99.90;;;;;;4992602;28;20034;-70
2022/04/10 00:11:17;;;;;;;2.17;1.70;;;-0.50;99.90;;;;;;4992464;28;20486;-69
2022/04/10 00:13:44;;;;;;;1.38;1.27;;;-0.50;99.90;;;;;;4992441;28;20041;-69
2022/04/10 00:16:10;;;;;;;2.00;1.60;;;-0.50;99.90;;;;;;4992486;28;20030;-69
2022/04/10 00:18:36;;;;;;;1.80;1.70;;;-0.60;99.90;;;;;;4992514;28;20031;-69
2022/04/10 00:21:04;;;;;;;1.67;1.58;;;-0.70;99.90;;;;;;4992326;28;20474;-69
2022/04/10 00:23:30;;;;;;;1.75;1.65;;;-0.70;99.90;;;;;;4992379;28;20065;-69
2022/04/10 00:25:56;;;;;;;2.03;1.70;;;-0.70;99.90;;;;;;4978204;28;20026;-69
2022/04/10 00:28:22;;;;;;;2.10;1.88;;;-0.70;99.90;;;;;;4996247;28;20053;-70
2022/04/10 00:30:48;;;;;;;2.17;1.90;;;-0.70;99.90;;;;;;4996001;28;20149;-69
2022/04/10 00:33:13;;;;;;;2.05;1.70;;;-0.70;99.90;;;;;;4996348;28;20383;-69
2022/04/10 00:35:39;;;;;;;2.95;1.70;;;-0.80;99.90;;;;;;4996320;28;20038;-70
2022/04/10 00:38:06;;;;;;;1.60;1.50;;;-0.80;99.90;;;;;;4996114;28;20137;-70
2022/04/10 00:40:32;;;;;;;2.75;1.83;;;-0.90;99.90;;;;;;4996172;28;20022;-70
2022/04/10 00:42:58;;;;;;;2.50;2.00;;;-0.80;99.90;;;;;;4978491;28;20030;-71
2022/04/10 00:45:24;;;;;;;2.33;1.60;;;-0.90;99.90;;;;;;4996099;28;20023;-71
2022/04/10 00:47:51;;;;;;;2.15;1.90;;;-0.90;99.90;;;;;;4995940;28;20528;-70
2022/04/10 00:50:18;;;;;;;2.33;2.13;;;-0.90;99.90;;;;;;4996129;28;20018;-70
2022/04/10 00:52:46;;;;;;;2.25;1.88;;;-0.90;99.90;;;;;;4996009;28;20390;-70
2022/04/10 00:55:12;;;;;;;1.95;1.85;;;-0.90;99.90;;;;;;4995858;28;20023;-70
2022/04/10 00:57:38;;;;;;;2.05;1.90;;;-1.00;99.90;;;;;;4995935;28;20022;-70
2022/04/10 01:00:09;;;;;;;2.25;1.70;;;-1.00;99.90;;;;;;4989939;28;20027;-70
2022/04/10 01:02:36;;;;;;;2.10;1.60;;;-1.00;99.90;;;;;;4978078;28;20031;-70
2022/04/10 01:05:04;;;;;;;2.28;1.77;;;-1.00;99.90;;;;;;4976468;28;20073;-70
2022/04/10 01:07:30;;;;;;;1.92;1.70;;;-1.10;99.90;;;;;;4976129;28;20091;-70
2022/04/10 01:09:56;;;;;;;2.00;1.80;;;-1.20;99.90;;;;;;4976252;28;20078;-70
2022/04/10 01:12:22;;;;;;;1.90;1.70;;;-1.20;99.90;;;;;;4976114;28;20035;-70
2022/04/10 01:14:49;;;;;;;1.83;1.67;;;-1.30;99.90;;;;;;4975884;28;20027;-70
2022/04/10 01:17:16;;;;;;;2.08;1.80;;;-1.30;99.90;;;;;;4976204;28;20060;-70
2022/04/10 01:19:42;;;;;;;2.45;1.70;;;-1.30;99.90;;;;;;4976249;28;20161;-70
2022/04/10 01:22:10;;;;;;;2.78;2.22;;;-1.30;99.90;;;;;;4975889;28;20031;-70
2022/04/10 01:24:40;;;;;;;2.40;2.05;;;-1.30;99.90;;;;;;4975743;28;20034;-69
2022/04/10 01:27:06;;;;;;;2.80;2.00;;;-1.30;99.90;;;;;;4976021;28;20026;-70
2022/04/10 01:29:33;;;;;;;2.20;2.00;;;-1.30;99.90;;;;;;4975803;28;20027;-71
2022/04/10 01:31:59;;;;;;;2.60;1.90;;;-1.40;99.90;;;;;;4975574;28;20038;-71
2022/04/10 01:34:25;;;;;;;2.00;1.65;;;-1.50;99.90;;;;;;4975835;28;20023;-71
2022/04/10 01:36:51;;;;;;;2.03;1.60;;;-1.50;99.90;;;;;;4974989;28;20037;-71
2022/04/10 01:39:17;;;;;;;2.03;1.40;;;-1.50;99.90;;;;;;4975471;28;20126;-71
2022/04/10 01:41:46;;;;;;;2.20;1.67;;;-1.50;99.90;;;;;;4975774;28;20129;-71
2022/04/10 01:44:12;;;;;;;2.00;1.85;;;-1.50;99.90;;;;;;4975527;28;20100;-71
2022/04/10 01:46:38;;;;;;;2.20;1.80;;;-1.50;99.90;;;;;;4975778;28;20054;-71
2022/04/10 01:49:05;;;;;;;1.73;1.63;;;-1.60;99.90;;;;;;4975441;28;20023;-71
2022/04/10 01:51:31;;;;;;;1.80;1.70;;;-1.60;99.90;;;;;;4975440;28;20038;-71
2022/04/10 01:53:57;;;;;;;2.00;1.73;;;-1.60;99.90;;;;;;4975318;28;20038;-71
2022/04/10 01:56:24;;;;;;;2.10;1.90;;;-1.60;99.90;;;;;;4975437;28;20027;-71
2022/04/10 01:58:52;;;;;;;1.70;1.60;;;-1.60;99.90;;;;;;4975184;28;20058;-69
2022/04/10 02:01:18;;;;;;;2.42;1.40;;;-1.70;99.90;;;;;;4975392;28;20022;-70
2022/04/10 02:03:46;;;;;;;1.48;1.38;;;-1.70;99.90;;;;;;4975082;28;20418;-69
2022/04/10 02:06:13;;;;;;;3.47;1.42;;;-1.70;99.90;;;;;;4975220;28;20050;-69
2022/04/10 02:08:41;;;;;;;1.80;1.55;;;-1.70;99.90;;;;;;4975298;28;20034;-69
2022/04/10 02:11:18;;;;;;;1.70;1.60;;;-1.70;99.90;;;;;;4975366;28;20101;-69
2022/04/10 02:13:45;;;;;;;1.58;1.42;;;-1.70;99.90;;;;;;4974776;28;20416;-69
2022/04/10 02:16:19;;;;;;;1.63;1.40;;;-1.70;99.90;;;;;;4974993;28;20034;-69
2022/04/10 02:18:46;;;;;;;1.50;1.38;;;-1.80;99.90;;;;;;4975027;28;20031;-69
2022/04/10 02:21:12;;;;;;;3.30;1.40;;;-1.80;99.90;;;;;;4975122;28;20386;-69
2022/04/10 02:23:38;;;;;;;3.15;1.60;;;-1.80;99.90;;;;;;4975033;28;20453;-69
2022/04/10 02:55:08;;;;;;;2.83;1.30;;;-2.00;99.90;;;;;;4973424;28;20462;-71
2022/04/10 02:57:35;;;;;;;1.23;1.13;;;-2.00;99.90;;;;;;4976714;28;20080;-71
2022/04/10 03:00:04;;;;;;;2.20;1.38;;;-2.00;99.90;;;;;;4974157;28;20038;-71
2022/04/10 03:02:30;;;;;;;1.25;1.10;;;-2.00;99.90;;;;;;4974319;28;20050;-72
2022/04/10 03:38:35;;;;;;;1.58;1.20;;;-2.00;99.90;;;;;;5132335;23;20508;-79
2022/04/10 03:41:01;;;;;;;1.98;1.40;;;-2.00;99.90;;;;;;5012293;28;20037;-79
2022/04/10 03:43:26;;;;;;;1.33;1.15;;;-2.00;99.90;;;;;;5012346;28;20177;-80
2022/04/10 03:45:52;;;;;;;1.52;1.17;;;-2.00;99.90;;;;;;5012191;28;20121;-80
2022/04/10 03:48:18;;;;;;;1.90;1.48;;;-2.00;99.90;;;;;;5012249;28;20022;-81
2022/04/10 03:50:43;;;;;;;1.17;1.17;;;-2.00;99.90;;;;;;5012461;28;20081;-80
2022/04/10 03:53:09;;;;;;;1.52;1.42;;;-2.00;99.90;;;;;;5012087;28;20052;-79
2022/04/10 03:55:35;;;;;;;1.50;1.40;;;-2.00;99.90;;;;;;5012642;28;20022;-80
2022/04/10 03:58:01;;;;;;;1.73;1.30;;;-2.00;99.90;;;;;;5013559;28;20436;-81
2022/04/10 04:00:27;;;;;;;1.75;1.33;;;-2.00;99.90;;;;;;5012103;28;20028;-85
2022/04/10 04:02:52;;;;;;;2.00;1.20;;;-2.00;99.90;;;;;;5012391;28;20477;-84
2022/04/10 04:05:18;;;;;;;1.08;1.08;;;-2.00;99.90;;;;;;5012382;28;20093;-85
2022/04/10 04:07:44;;;;;;;1.55;1.45;;;-2.00;99.90;;;;;;5012061;28;20500;-81
2022/04/10 04:10:10;;;;;;;1.40;1.30;;;-2.00;99.90;;;;;;5012298;28;20045;-79
2022/04/10 04:12:36;;;;;;;2.05;1.30;;;-1.90;99.90;;;;;;5012024;28;20485;-82
2022/04/10 04:15:03;;;;;;;1.20;1.10;;;-2.00;99.90;;;;;;5012402;28;20485;-82
2022/04/10 04:17:29;;;;;;;2.05;1.30;;;-2.00;99.90;;;;;;5012170;28;20065;-82
2022/04/10 04:19:55;;;;;;;1.27;1.17;;;-2.00;99.90;;;;;;5012153;28;20066;-82
2022/04/10 04:22:21;;;;;;;1.52;1.42;;;-2.00;99.90;;;;;;5012104;28;20026;-85
2022/04/10 04:24:47;;;;;;;1.20;1.10;;;-2.10;99.90;;;;;;5012080;28;20033;-79
2022/04/10 04:27:14;;;;;;;1.80;1.20;;;-2.00;99.90;;;;;;5011888;28;20026;-79
2022/04/10 04:29:39;;;;;;;1.75;1.40;;;-2.00;99.90;;;;;;5012178;28;20109;-78
2022/04/10 04:32:06;;;;;;;1.63;1.42;;;-2.00;99.90;;;;;;5011693;28;20442;-77
2022/04/10 04:34:31;;;;;;;1.08;0.98;;;-2.00;99.90;;;;;;5011729;28;20033;-70
2022/04/10 04:36:57;;;;;;;1.20;1.10;;;-1.90;99.90;;;;;;5011523;28;20163;-71
2022/04/10 04:39:23;;;;;;;1.50;1.40;;;-1.90;99.90;;;;;;5011750;28;20030;-74
2022/04/10 04:41:49;;;;;;;1.40;1.30;;;-1.90;99.90;;;;;;5012075;28;20026;-71
2022/04/10 04:44:15;;;;;;;1.30;1.20;;;-1.70;99.90;;;;;;5011236;28;20040;-68
2022/04/10 04:46:41;;;;;;;1.13;1.02;;;-1.10;99.90;;;;;;5011439;28;20018;-81
2022/04/10 04:49:07;;;;;;;1.15;1.00;;;-1.10;99.90;;;;;;5008317;28;20499;-75
2022/04/10 04:51:36;;;;;;;2.88;1.38;;;-1.20;99.90;;;;;;5008456;28;20026;-75
2022/04/10 04:54:08;;;;;;;2.92;1.27;;;-1.40;99.90;;;;;;5011187;28;20084;-79
2022/04/10 04:56:34;;;;;;;1.35;1.25;;;-1.50;99.90;;;;;;4991931;28;20030;-77
2022/04/10 04:58:59;;;;;;;2.92;1.80;;;-1.50;99.90;;;;;;5000781;28;20055;-75
2022/04/10 05:01:25;;;;;;;1.52;1.42;;;-1.60;99.90;;;;;;5006067;28;20449;-79
2022/04/10 05:03:51;;;;;;;1.45;1.35;;;-1.60;99.90;;;;;;5010887;28;20385;-70
2022/04/10 05:06:17;;;;;;;4.78;1.63;;;-1.50;99.90;;;;;;4980362;28;20035;-70
2022/04/10 05:08:46;;;;;;;3.00;1.70;;;-1.00;99.90;;;;;;4996691;28;20521;-70
2022/04/10 05:11:13;;;;;;;3.10;2.33;;;-0.50;99.90;;;;;;5010239;28;20056;-70
2022/04/10 05:13:39;;;;;;;2.03;1.83;;;0.10;99.90;;;;;;5011229;28;20038;-70
2022/04/10 05:16:05;;;;;;;2.55;2.35;;;0.30;99.90;;;;;;5005971;28;20022;-70
2022/04/10 05:18:31;;;;;;;1.92;1.30;;;0.40;99.90;;;;;;5009126;28;20088;-77
2022/04/10 05:20:57;;;;;;;1.95;1.17;;;0.40;99.90;;;;;;5009378;28;20026;-82
2022/04/10 05:23:23;;;;;;;1.38;1.27;;;0.30;99.90;;;;;;5014298;28;20025;-83
2022/04/10 05:25:50;;;;;;;1.17;1.08;;;0.30;99.90;;;;;;5014595;28;20397;-81
2022/04/10 05:28:16;;;;;;;1.30;1.20;;;0.20;99.90;;;;;;5014654;28;20087;-72
2022/04/10 05:30:42;;;;;;;2.38;2.03;;;0.10;99.90;;;;;;5014896;28;20106;-72
2022/04/10 05:33:08;;;;;;;4.07;3.05;;;0.30;99.90;;;;;;5014602;28;20404;-71
2022/04/10 05:35:34;;;;;;;5.20;3.05;;;0.40;99.90;;;;;;5014492;28;20037;-71
2022/04/10 05:38:00;;;;;;;2.00;1.80;;;0.50;99.90;;;;;;5014429;28;20054;-74
2022/04/10 05:40:26;;;;;;;2.08;1.80;;;0.70;99.90;;;;;;5014550;28;20041;-70
2022/04/10 05:42:52;;;;;;;2.83;1.20;;;1.10;99.90;;;;;;5014616;28;20030;-71
2022/04/10 05:45:18;;;;;;;2.03;1.42;;;1.70;99.90;;;;;;5014611;28;20022;-71
2022/04/10 05:47:45;;;;;;;1.30;1.20;;;1.90;99.90;;;;;;5014560;28;20579;-71
2022/04/10 05:50:13;;;;;;;2.25;1.25;;;2.10;99.90;;;;;;5014439;28;20500;-71
2022/04/10 05:52:41;;;;;;;1.25;1.15;;;2.60;99.90;;;;;;5014280;28;20048;-71
2022/04/10 05:55:08;;;;;;;1.48;1.38;;;2.90;99.90;;;;;;5014459;28;20488;-71
2022/04/10 05:57:34;;;;;;;1.67;1.30;;;3.10;99.90;;;;;;5014235;28;20030;-71
2022/04/10 06:00:01;;;;;;;2.35;1.42;;;3.20;99.90;;;;;;5014206;28;20030;-72
2022/04/10 06:02:27;;;;;;;2.25;1.98;;;3.40;99.90;;;;;;5014126;28;20508;-71
2022/04/10 06:04:53;;;;;;;2.42;1.67;;;3.70;99.90;;;;;;5014151;28;20544;-71
2022/04/10 06:07:18;;;;;;;2.78;1.98;;;4.10;99.90;;;;;;5014089;28;20021;-70
2022/04/10 06:09:44;;;;;;;2.25;1.83;;;4.40;99.90;;;;;;5014087;28;20033;-69
2022/04/10 06:12:10;;;;;;;2.75;1.95;;;4.60;99.90;;;;;;5014170;28;20026;-68
2022/04/10 06:14:36;;;;;;;2.38;1.92;;;4.80;99.90;;;;;;5012406;28;20610;-68
2022/04/10 06:17:02;;;;;;;2.35;1.70;;;5.00;99.90;;;;;;5017862;28;20095;-68
2022/04/10 06:19:28;;;;;;;1.90;1.75;;;5.10;99.90;;;;;;5032932;28;20033;-67
2022/04/10 06:21:54;;;;;;;2.75;2.10;;;5.30;99.90;;;;;;5020890;28;20106;-67
2022/04/10 06:24:21;;;;;;;2.88;1.90;;;5.40;99.90;;;;;;5028186;28;20056;-73
2022/04/10 06:26:49;;;;;;;2.75;2.15;;;5.30;99.90;;;;;;5016389;28;20030;-66
2022/04/10 06:29:15;;;;;;;2.10;1.90;;;5.20;99.90;;;;;;5026193;28;20026;-66
2022/04/10 06:31:41;;;;;;;1.75;1.65;;;5.10;99.90;;;;;;5023019;28;20100;-67
2022/04/10 06:34:07;;;;;;;1.88;1.33;;;4.90;99.90;;;;;;5019257;28;20065;-67
2022/04/10 06:36:33;;;;;;;3.58;1.65;;;4.90;99.90;;;;;;5029009;28;20022;-67
2022/04/10 06:38:59;;;;;;;1.58;1.48;;;5.00;99.90;;;;;;5016783;28;20183;-67
2022/04/10 06:41:24;;;;;;;3.33;1.50;;;5.00;99.90;;;;;;5024924;28;20033;-66
2022/04/10 06:43:50;;;;;;;1.60;1.40;;;5.10;99.90;;;;;;5023896;28;20453;-67
2022/04/10 06:46:16;;;;;;;1.35;1.25;;;5.10;99.90;;;;;;4999974;28;20541;-66
2022/04/10 06:48:42;;;;;;;2.63;1.40;;;5.10;99.90;;;;;;5028960;28;20022;-67
2022/04/10 06:51:07;;;;;;;4.57;1.83;;;5.20;99.90;;;;;;5012858;28;20029;-66
2022/04/10 06:53:33;;;;;;;1.52;1.38;;;5.30;99.90;;;;;;5012272;28;20124;-66
2022/04/10 06:55:59;;;;;;;2.17;1.30;;;5.40;99.90;;;;;;5013228;28;20018;-65
2022/04/10 06:58:25;;;;;;;1.77;1.67;;;5.40;99.90;;;;;;4996724;28;20026;-66
2022/04/10 07:00:51;;;;;;;1.73;1.38;;;5.40;99.90;;;;;;4993076;28;20027;-66
2022/04/10 07:03:20;;;;;;;2.00;1.67;;;5.50;99.90;;;;;;4993279;28;20109;-66
2022/04/10 07:05:46;;;;;;;2.08;1.48;;;5.70;99.90;;;;;;4993020;28;20033;-66
2022/04/10 07:08:11;;;;;;;2.50;1.67;;;5.70;99.90;;;;;;4993158;28;20466;-66
2022/04/10 07:10:37;;;;;;;3.40;1.88;;;5.60;99.90;;;;;;4993053;28;20537;-66
2022/04/10 07:13:04;;;;;;;1.83;1.30;;;5.40;99.90;;;;;;4992775;28;20093;-66
2022/04/10 07:15:30;;;;;;;1.52;1.30;;;5.30;99.90;;;;;;4992844;28;20481;-66
2022/04/10 07:17:56;;;;;;;4.88;1.75;;;5.30;99.90;;;;;;4992733;28;20030;-66
2022/04/10 07:20:25;;;;;;;2.13;1.58;;;5.20;99.90;;;;;;4992800;28;20022;-66
2022/04/10 07:25:36;;;;;;;2.05;1.40;;;5.00;99.90;;;;;;5012391;28;20033;-66
2022/04/10 07:28:02;;;;;;;3.83;1.52;;;5.00;99.90;;;;;;5003407;28;20026;-66
2022/04/10 07:30:27;;;;;;;1.67;1.42;;;4.80;99.90;;;;;;5003955;28;20029;-66
2022/04/10 07:32:55;;;;;;;2.97;1.50;;;4.60;99.90;;;;;;5012511;28;20040;-67
2022/04/10 07:35:22;;;;;;;2.53;1.60;;;4.70;99.90;;;;;;5011835;28;20090;-67
2022/04/10 07:37:49;;;;;;;3.03;1.80;;;4.60;99.90;;;;;;5012265;28;20042;-75
2022/04/10 07:40:15;;;;;;;3.40;1.85;;;4.60;99.90;;;;;;5012110;28;20428;-70
2022/04/10 07:42:45;;;;;;;1.65;1.55;;;4.50;99.90;;;;;;5011958;28;20026;-71
2022/04/10 07:47:25;;;;;;;1.67;1.40;;;4.40;99.90;;;;;;5011951;28;20075;-66
2022/04/10 07:48:01;;;;;;;2.65;1.48;;;4.40;99.90;;;;;;5012198;28;20269;-67
2022/04/10 07:50:28;;;;;;;3.85;1.75;;;4.70;99.90;;;;;;5012309;28;20381;-67
2022/04/10 07:52:56;;;;;;;1.20;1.10;;;4.90;99.90;;;;;;5012188;28;20045;-66
2022/04/10 07:55:22;;;;;;;1.52;1.15;;;5.30;99.90;;;;;;5012119;28;20060;-67
2022/04/10 07:57:48;;;;;;;2.08;1.23;;;5.40;99.90;;;;;;5012499;28;20030;-67
2022/04/10 08:00:17;;;;;;;2.60;1.40;;;5.30;99.90;;;;;;5012076;28;20470;-67
2022/04/10 08:02:46;;;;;;;1.52;1.30;;;5.40;99.90;;;;;;5012519;28;20442;-67
2022/04/10 08:05:13;;;;;;;2.00;1.50;;;5.60;99.90;;;;;;5012073;28;20556;-67
2022/04/10 08:07:39;;;;;;;4.10;1.25;;;5.70;99.90;;;;;;5012396;28;20026;-67
2022/04/10 08:10:06;;;;;;;3.17;1.50;;;5.70;99.90;;;;;;5012215;28;20029;-67
2022/04/10 08:12:31;;;;;;;3.03;1.23;;;5.60;99.90;;;;;;5011977;28;20041;-67
2022/04/10 08:14:57;;;;;;;2.20;1.30;;;5.90;99.90;;;;;;5012143;28;20400;-67
2022/04/10 08:17:23;;;;;;;3.55;1.42;;;6.40;99.90;;;;;;4994416;28;20030;-68
2022/04/10 08:19:48;;;;;;;3.60;1.40;;;6.10;99.90;;;;;;5012145;28;20108;-68
2022/04/10 08:22:14;;;;;;;1.67;1.20;;;5.90;99.90;;;;;;5012272;28;20026;-67
2022/04/10 08:24:40;;;;;;;3.40;1.30;;;5.80;99.90;;;;;;5011764;28;20044;-67
2022/04/10 08:27:06;;;;;;;1.38;1.17;;;5.60;99.90;;;;;;5011954;28;20473;-68
2022/04/10 08:29:31;;;;;;;2.78;1.55;;;5.20;99.90;;;;;;5012102;28;20026;-67
2022/04/10 08:31:57;;;;;;;1.75;1.25;;;4.90;99.90;;;;;;5011849;28;20112;-68
2022/04/10 08:34:23;;;;;;;2.55;1.48;;;4.70;99.90;;;;;;5011965;28;20037;-68
2022/04/10 08:36:49;;;;;;;1.73;1.25;;;4.60;99.90;;;;;;5011879;28;20025;-68
2022/04/10 08:39:15;;;;;;;1.75;1.13;;;4.60;99.90;;;;;;5011731;28;20030;-68
2022/04/10 08:41:41;;;;;;;2.20;0.98;;;4.50;99.90;;;;;;5012038;28;20084;-67
2022/04/10 08:44:07;;;;;;;2.17;1.48;;;4.50;99.90;;;;;;5012057;28;20037;-67
2022/04/10 08:46:36;;;;;;;7.65;1.15;;;4.60;99.90;;;;;;5014307;28;20021;-68
2022/04/10 08:49:02;;;;;;;5.88;1.23;;;4.60;99.90;;;;;;5015645;28;20477;-68
2022/04/10 08:51:29;;;;;;;4.55;1.70;;;4.70;99.90;;;;;;5015514;28;20029;-68
2022/04/10 08:53:55;;;;;;;1.50;1.25;;;4.70;99.90;;;;;;5015367;28;20430;-68
2022/04/10 08:56:23;;;;;;;1.48;1.23;;;4.60;99.90;;;;;;5015212;28;20018;-67
2022/04/10 08:58:49;;;;;;;2.65;1.30;;;4.70;99.90;;;;;;5015012;28;20042;-68
2022/04/10 09:01:19;;;;;;;1.70;1.10;;;4.70;99.90;;;;;;5015682;28;20076;-67
2022/04/10 09:03:46;;;;;;;1.38;1.10;;;4.70;99.90;;;;;;5015264;28;20497;-68
2022/04/10 09:06:12;;;;;;;4.00;1.20;;;4.60;99.90;;;;;;5015314;28;20414;-68
2022/04/10 09:08:38;;;;;;;2.97;1.17;;;4.50;99.90;;;;;;5014893;28;20413;-68
2022/04/10 09:11:06;;;;;;;1.70;1.40;;;4.40;99.90;;;;;;5015563;28;20109;-68
2022/04/10 09:13:53;;;;;;;3.33;1.10;;;4.40;99.90;;;;;;5014887;28;20038;-68
2022/04/10 09:16:22;;;;;;;2.08;1.05;;;4.50;99.90;;;;;;5014440;28;20033;-68
2022/04/10 09:19:10;;;;;;;1.80;1.27;;;4.50;99.90;;;;;;5015309;28;20521;-67
2022/04/10 09:21:39;;;;;;;1.23;1.10;;;4.40;99.90;;;;;;5015007;28;20022;-68
2022/04/10 09:24:05;;;;;;;2.28;1.55;;;4.40;99.90;;;;;;5014457;28;20053;-68
2022/04/10 09:26:47;;;;;;;2.45;1.25;;;4.50;99.90;;;;;;5014380;28;20069;-68
2022/04/10 09:29:17;;;;;;;3.92;1.10;;;4.50;99.90;;;;;;5015366;28;20445;-68
2022/04/10 09:31:44;;;;;;;1.15;0.98;;;4.40;99.90;;;;;;5015097;28;20026;-67
2022/04/10 09:34:15;;;;;;;2.15;1.00;;;4.50;99.90;;;;;;5014810;28;20084;-68
2022/04/10 09:36:46;;;;;;;2.58;1.08;;;4.50;99.90;;;;;;5014647;28;20029;-68
2022/04/10 09:39:35;;;;;;;3.08;1.17;;;4.50;99.90;;;;;;5015052;28;20050;-68
2022/04/10 09:42:07;;;;;;;1.60;1.20;;;4.50;99.90;;;;;;5004957;28;20452;-68
2022/04/10 09:44:35;;;;;;;1.00;0.90;;;4.50;99.90;;;;;;5014519;28;20041;-68
2022/04/10 09:47:05;;;;;;;1.30;0.95;;;4.50;99.90;;;;;;5014546;28;20068;-68
2022/04/10 09:49:39;;;;;;;2.92;1.08;;;4.40;99.90;;;;;;5014866;28;20037;-68
2022/04/10 09:52:12;;;;;;;1.25;1.15;;;4.40;99.90;;;;;;5014593;28;20034;-68
2022/04/10 09:54:38;;;;;;;1.20;1.10;;;4.50;99.90;;;;;;5014313;28;20096;-68
2022/04/10 09:57:05;;;;;;;1.95;1.20;;;4.50;99.90;;;;;;5014140;28;20018;-69
2022/04/10 10:00:00;;;;;;;1.35;0.95;;;4.50;99.90;;;;;;5014396;28;20085;-68
2022/04/10 10:02:26;;;;;;;1.50;1.00;;;4.40;99.90;;;;;;5012028;28;20524;-68
2022/04/10 10:04:54;;;;;;;1.38;1.10;;;4.30;99.90;;;;;;5014137;28;20079;-68
2022/04/10 10:07:20;;;;;;;1.23;1.00;;;4.20;99.90;;;;;;5014194;28;20619;-68
2022/04/10 10:09:48;;;;;;;1.15;1.05;;;4.00;99.90;;;;;;5014070;28;20032;-68
2022/04/10 10:12:15;;;;;;;1.30;1.20;;;3.90;99.90;;;;;;5013644;28;20114;-68
2022/04/10 10:14:42;;;;;;;1.25;1.13;;;3.90;99.90;;;;;;5013239;28;20601;-68
2022/04/10 10:17:09;;;;;;;2.42;0.93;;;3.90;99.90;;;;;;5014009;28;20393;-68
2022/04/10 10:19:39;;;;;;;2.00;1.20;;;3.90;99.90;;;;;;5013871;28;20029;-68
2022/04/10 10:22:08;;;;;;;2.22;1.10;;;3.90;99.90;;;;;;5013939;28;20098;-68
2022/04/10 10:24:43;;;;;;;1.20;1.02;;;3.90;99.90;;;;;;5013699;28;20386;-68
2022/04/10 10:27:35;;;;;;;1.30;1.20;;;3.90;99.90;;;;;;5013824;28;20099;-68
2022/04/10 10:30:23;;;;;;;0.90;0.90;;;3.90;99.90;;;;;;5013117;28;20069;-68
2022/04/10 10:32:56;;;;;;;2.80;0.90;;;3.90;99.90;;;;;;5013978;28;20104;-68
2022/04/10 10:35:38;;;;;;;0.95;0.88;;;3.90;99.90;;;;;;5013789;28;20041;-68
2022/04/10 10:38:25;;;;;;;0.90;0.90;;;3.80;99.90;;;;;;5013482;28;20046;-68
2022/04/10 10:40:52;;;;;;;1.60;1.15;;;3.70;99.90;;;;;;5013843;28;20030;-67
2022/04/10 10:43:24;;;;;;;2.58;1.00;;;3.70;99.90;;;;;;5013722;28;20481;-68
2022/04/10 10:45:52;;;;;;;0.80;0.80;;;3.70;99.90;;;;;;5013783;28;20032;-68
2022/04/10 10:48:34;;;;;;;0.95;0.90;;;3.60;99.90;;;;;;5013402;28;20034;-68
2022/04/10 10:51:20;;;;;;;1.45;1.00;;;3.60;99.90;;;;;;5013718;28;20026;-68
2022/04/10 10:53:55;;;;;;;1.85;1.13;;;3.60;99.90;;;;;;5012774;28;20034;-67
2022/04/10 10:56:27;;;;;;;2.22;1.00;;;3.50;99.90;;;;;;5013408;28;20026;-68
2022/04/10 10:59:25;;;;;;;1.55;1.00;;;3.40;99.90;;;;;;5012973;28;20033;-68
2022/04/10 11:01:54;;;;;;;1.67;1.20;;;3.30;99.90;;;;;;4998015;28;20413;-67
2022/04/10 11:04:21;;;;;;;1.55;1.23;;;3.40;99.90;;;;;;5013006;28;20120;-68
2022/04/10 11:06:47;;;;;;;1.88;1.10;;;3.40;99.90;;;;;;5013110;28;20037;-68
2022/04/10 11:09:28;;;;;;;1.23;1.13;;;3.40;99.90;;;;;;5012056;28;20038;-68
2022/04/10 11:11:57;;;;;;;1.35;1.00;;;3.30;99.90;;;;;;5013272;28;20099;-67
2022/04/10 11:14:39;;;;;;;1.17;0.95;;;3.30;99.90;;;;;;5012710;28;20033;-66
2022/04/10 11:17:16;;;;;;;2.65;1.10;;;3.30;99.90;;;;;;5013173;28;20116;-68
2022/04/10 11:20:07;;;;;;;0.80;0.80;;;3.30;99.90;;;;;;4994993;28;20041;-68
2022/04/10 11:22:45;;;;;;;1.00;0.90;;;3.30;99.90;;;;;;5003406;28;20040;-68
2022/04/10 11:25:11;;;;;;;2.67;1.10;;;3.30;99.90;;;;;;5012632;28;20125;-68
2022/04/10 11:27:50;;;;;;;1.55;0.90;;;3.30;99.90;;;;;;5012561;28;20076;-70
2022/04/10 11:30:24;;;;;;;1.60;1.02;;;3.30;99.90;;;;;;5012745;28;20658;-70
2022/04/10 11:32:51;;;;;;;0.90;0.90;;;3.30;99.90;;;;;;5012803;28;20045;-70
2022/04/10 11:35:19;;;;;;;1.00;0.80;;;3.30;99.90;;;;;;5012809;28;20026;-70
2022/04/10 11:37:47;;;;;;;1.33;0.90;;;3.30;99.90;;;;;;5012254;28;20405;-70
2022/04/10 11:40:17;;;;;;;2.85;1.00;;;3.30;99.90;;;;;;5012718;28;20385;-70
2022/04/10 11:42:43;;;;;;;1.20;0.80;;;3.20;99.90;;;;;;5012554;28;20029;-68
2022/04/10 11:45:10;;;;;;;0.80;0.80;;;3.20;99.90;;;;;;4994852;28;20035;-66
2022/04/10 11:47:38;;;;;;;0.95;0.85;;;3.20;99.90;;;;;;5012255;28;20037;-66
2022/04/10 11:50:06;;;;;;;1.67;1.08;;;4.00;99.90;;;;;;5012687;28;20054;-66
2022/04/10 11:52:32;;;;;;;1.80;0.90;;;5.10;99.90;;;;;;5012149;28;20117;-66
2022/04/10 11:54:57;;;;;;;1.23;1.08;;;4.90;99.90;;;;;;5012339;28;20073;-66
2022/04/10 11:57:24;;;;;;;2.17;1.13;;;4.50;99.90;;;;;;5012436;28;20037;-66
2022/04/10 11:59:50;;;;;;;1.52;1.00;;;4.30;99.90;;;;;;5012548;28;20030;-66
2022/04/10 12:02:17;;;;;;;3.22;1.13;;;4.00;99.90;;;;;;5012377;28;20018;-66
2022/04/10 12:04:44;;;;;;;1.15;1.05;;;3.80;99.90;;;;;;5012338;28;20022;-66
2022/04/10 12:07:12;;;;;;;1.48;1.08;;;3.80;99.90;;;;;;5012142;28;20056;-66
2022/04/10 12:09:39;;;;;;;2.33;1.00;;;3.70;99.90;;;;;;5012046;28;20029;-66
2022/04/10 12:12:05;;;;;;;1.10;1.00;;;3.70;99.90;;;;;;5012303;28;20120;-66
2022/04/10 12:14:31;;;;;;;1.20;1.10;;;3.60;99.90;;;;;;5012344;28;20125;-66
2022/04/10 12:16:56;;;;;;;1.50;1.00;;;3.50;99.90;;;;;;5012061;28;20460;-66
2022/04/10 12:19:35;;;;;;;1.17;1.08;;;3.50;99.90;;;;;;5012082;28;20072;-65
2022/04/10 12:22:10;;;;;;;1.17;1.02;;;4.60;99.90;;;;;;5015752;28;20021;-66
2022/04/10 12:24:37;;;;;;;1.13;0.98;;;5.20;99.90;;;;;;5016226;28;20026;-65
2022/04/10 12:27:06;;;;;;;2.15;1.42;;;4.70;99.90;;;;;;5016306;28;20076;-65
2022/04/10 12:29:34;;;;;;;1.30;1.20;;;4.30;99.90;;;;;;5015810;28;20149;-65
2022/04/10 12:32:00;;;;;;;1.10;1.00;;;4.00;99.90;;;;;;5016136;28;20061;-65
2022/04/10 12:34:34;;;;;;;1.80;0.90;;;3.80;99.90;;;;;;5015726;28;20101;-65
2022/04/10 12:37:10;;;;;;;1.25;0.98;;;3.70;99.90;;;;;;5015289;28;20043;-65
2022/04/10 12:39:36;;;;;;;0.90;0.90;;;3.60;99.90;;;;;;5015997;28;20041;-65
2022/04/10 12:42:08;;;;;;;2.15;0.90;;;3.50;99.90;;;;;;5015752;28;20021;-65
2022/04/10 12:44:39;;;;;;;1.30;1.10;;;3.50;99.90;;;;;;5015756;28;20037;-65
2022/04/10 12:47:08;;;;;;;1.05;1.00;;;3.50;99.90;;;;;;5015871;28;20474;-65
2022/04/10 12:49:39;;;;;;;2.78;1.08;;;3.50;99.90;;;;;;5015041;28;20084;-68
2022/04/10 12:52:08;;;;;;;2.33;1.35;;;3.50;99.90;;;;;;5015572;28;20069;-73
2022/04/10 12:54:41;;;;;;;1.58;1.00;;;3.40;99.90;;;;;;5015074;28;20018;-73
2022/04/10 12:57:09;;;;;;;1.95;1.20;;;3.40;99.90;;;;;;5015233;28;20018;-73
2022/04/10 12:59:48;;;;;;;2.50;1.20;;;3.40;99.90;;;;;;5015604;28;20425;-73
2022/04/10 13:02:21;;;;;;;1.02;0.90;;;3.40;99.90;;;;;;5015491;28;20025;-73
2022/04/10 13:04:57;;;;;;;1.20;0.95;;;3.40;99.90;;;;;;5015507;28;20030;-73
2022/04/10 13:07:25;;;;;;;0.90;0.90;;;3.40;99.90;;;;;;5015759;28;20025;-73
2022/04/10 13:10:04;;;;;;;2.03;1.20;;;3.50;99.90;;;;;;5015475;28;20455;-73
2022/04/10 13:12:35;;;;;;;1.60;0.93;;;3.50;99.90;;;;;;5015225;28;20069;-72
2022/04/10 13:15:01;;;;;;;1.42;1.10;;;3.50;99.90;;;;;;5015361;28;20045;-72
2022/04/10 13:17:37;;;;;;;1.10;1.00;;;3.50;99.90;;;;;;5015169;28;20388;-71
2022/04/10 13:20:05;;;;;;;2.78;1.05;;;3.80;99.90;;;;;;5015178;28;20030;-70
2022/04/10 13:22:35;;;;;;;1.17;1.05;;;3.70;99.90;;;;;;5014832;28;20107;-66
2022/04/10 13:25:02;;;;;;;1.77;1.10;;;3.70;99.90;;;;;;5014937;28;20520;-67
2022/04/10 13:27:28;;;;;;;1.83;0.82;;;3.60;99.90;;;;;;5015143;28;20033;-68
2022/04/10 13:29:54;;;;;;;1.17;0.88;;;3.60;99.90;;;;;;5014912;28;20032;-68
2022/04/10 13:32:20;;;;;;;1.95;1.02;;;3.60;99.90;;;;;;5013741;28;20068;-68
2022/04/10 13:34:46;;;;;;;5.93;0.93;;;3.50;99.90;;;;;;5014664;28;20053;-68
2022/04/10 13:37:12;;;;;;;2.25;1.20;;;3.50;99.90;;;;;;5014581;28;20497;-68
2022/04/10 13:39:38;;;;;;;0.90;0.90;;;3.60;99.90;;;;;;4997034;28;20029;-68
2022/04/10 13:42:04;;;;;;;1.58;0.73;;;3.60;99.90;;;;;;5014389;28;20022;-68
2022/04/10 13:44:31;;;;;;;1.25;0.80;;;3.60;99.90;;;;;;5014099;28;20040;-67
2022/04/10 13:46:57;;;;;;;2.17;0.93;;;3.60;99.90;;;;;;5014624;28;20030;-67
2022/04/10 13:49:23;;;;;;;0.88;0.77;;;3.70;99.90;;;;;;5009903;28;20069;-67
2022/04/10 13:51:49;;;;;;;1.00;0.90;;;3.80;99.90;;;;;;5014311;28;20057;-67
2022/04/10 13:54:15;;;;;;;0.90;0.90;;;3.60;99.90;;;;;;4981842;28;20379;-67
2022/04/10 13:56:41;;;;;;;1.00;0.85;;;3.50;99.90;;;;;;4994681;28;20022;-67
2022/04/10 13:59:07;;;;;;;1.98;0.90;;;3.40;99.90;;;;;;4994815;28;20057;-67
2022/04/10 14:01:33;;;;;;;5.40;0.90;;;3.30;99.90;;;;;;4994797;28;20033;-67
2022/04/10 14:03:59;;;;;;;1.30;1.10;;;3.30;99.90;;;;;;4994689;28;20481;-67